Creston, South Carolina
Current Conditions -  °F | °C
As of 2:53 PM on Monday 24 Nov 2014 (Local Time) from KOGB Reporting Station
Overcast Overcast  
Wind Chill: 71°   Ceiling: 8000
Heat Index: 71°   Visibility: 10mi
Dew Point: 67°   Wind: 7mph
Humidity: 87%   Direction: 200°SSW
Pressure: 29.83"   Gusts: NA
Location:  33.5645°N, 80.6572°W
Report Text: KOGB 241953Z AUTO 20006KT 10SM OVC080 22/19 A2983 RMK AO2 RAB19E51 SLP100 P0004 T02170194
Loading
Personal Weather Stations






























Interactive Weather Map New forecast layout! Learn more

10-Day Weather Forecast

Advertisements
Track Severe Weather on mobile